Time;durP1;ratioP1;P1;durP2;ratioP2;P2;SDS_P1;SDS_P2;PMS_P1;PMS_P2;Temp;Humidity;BMP_temperature;BMP_pressure;BME280_temperature;BME280_humidity;BME280_pressure;Samples;Min_cycle;Max_cycle;Signal;HPM_P1;HPM_P2
2023/07/18 00:00:45;;;;;;;13.02;3.05;;;13.30;99.90;;;;;;5048899;28;20076;-64
2023/07/18 00:03:14;;;;;;;6.93;2.90;;;13.30;99.90;;;;;;5046844;28;20461;-65
2023/07/18 00:05:40;;;;;;;6.85;2.92;;;13.20;99.90;;;;;;5048488;28;20491;-64
2023/07/18 00:08:06;;;;;;;10.93;2.83;;;13.10;99.90;;;;;;5041583;28;20104;-62
2023/07/18 00:10:32;;;;;;;9.23;3.05;;;13.30;99.90;;;;;;5047887;28;20147;-63
2023/07/18 00:12:58;;;;;;;9.30;3.20;;;13.20;99.90;;;;;;5031319;28;20045;-63
2023/07/18 00:15:28;;;;;;;8.45;2.95;;;13.30;99.90;;;;;;5009225;28;20068;-63
2023/07/18 00:17:54;;;;;;;10.35;3.28;;;13.20;99.90;;;;;;5029079;28;20059;-64
2023/07/18 00:20:22;;;;;;;10.85;3.15;;;13.30;99.90;;;;;;5048049;28;20074;-63
2023/07/18 00:22:49;;;;;;;9.90;3.10;;;13.30;99.90;;;;;;5023902;28;20087;-63
2023/07/18 00:25:19;;;;;;;6.65;2.92;;;13.40;99.90;;;;;;5027921;28;20211;-64
2023/07/18 00:27:49;;;;;;;8.48;3.28;;;13.40;99.90;;;;;;5041608;28;20354;-63
2023/07/18 00:30:17;;;;;;;6.53;3.22;;;13.40;99.90;;;;;;5027344;28;20091;-63
2023/07/18 00:32:44;;;;;;;9.27;2.90;;;13.40;99.90;;;;;;5029082;28;20056;-63
2023/07/18 00:35:11;;;;;;;7.13;2.88;;;13.50;99.90;;;;;;5028735;28;20041;-64
2023/07/18 00:37:38;;;;;;;6.28;2.75;;;13.50;99.90;;;;;;5031205;28;20045;-64
2023/07/18 00:40:11;;;;;;;5.10;3.13;;;13.40;99.90;;;;;;5047237;28;20037;-63
2023/07/18 00:42:45;;;;;;;8.27;3.28;;;13.50;99.90;;;;;;5044980;28;20460;-64
2023/07/18 00:45:11;;;;;;;9.45;3.80;;;13.50;99.90;;;;;;5011660;28;20048;-62
2023/07/18 00:47:40;;;;;;;11.15;3.70;;;13.40;99.90;;;;;;5027465;28;20047;-63
2023/07/18 00:50:12;;;;;;;10.68;3.40;;;13.40;99.90;;;;;;5048226;28;20063;-64
2023/07/18 00:52:51;;;;;;;9.25;3.92;;;13.40;99.90;;;;;;5047650;28;20044;-63
2023/07/18 00:55:17;;;;;;;7.18;3.28;;;13.40;99.90;;;;;;5047450;28;20122;-64
2023/07/18 00:57:44;;;;;;;9.50;3.08;;;13.40;99.90;;;;;;5022729;28;20461;-63
2023/07/18 01:00:11;;;;;;;5.85;2.58;;;13.30;99.90;;;;;;5039855;28;20327;-63
2023/07/18 01:02:42;;;;;;;11.82;3.78;;;13.30;99.90;;;;;;5038077;28;20033;-63
2023/07/18 01:05:08;;;;;;;8.73;3.10;;;13.20;99.90;;;;;;5046203;28;20094;-62
2023/07/18 01:07:35;;;;;;;12.18;2.97;;;13.10;99.90;;;;;;5045452;28;20128;-64
2023/07/18 01:10:26;;;;;;;5.97;3.00;;;13.10;99.90;;;;;;5030983;28;20079;-63
2023/07/18 01:12:57;;;;;;;9.85;3.22;;;13.10;99.90;;;;;;5024048;28;20041;-63
2023/07/18 01:15:26;;;;;;;10.27;3.58;;;13.10;99.90;;;;;;5027593;28;20476;-64
2023/07/18 01:17:51;;;;;;;12.18;2.63;;;13.10;99.90;;;;;;5033942;28;20385;-63
2023/07/18 01:20:27;;;;;;;12.50;3.25;;;13.10;99.90;;;;;;5035310;28;20038;-62
2023/07/18 01:22:56;;;;;;;7.85;3.40;;;13.00;99.90;;;;;;5032541;28;20033;-64
2023/07/18 01:25:22;;;;;;;8.82;3.60;;;13.00;99.90;;;;;;5047079;28;20055;-63
2023/07/18 01:27:49;;;;;;;7.47;3.33;;;13.00;99.90;;;;;;5028631;28;20481;-64
2023/07/18 01:30:18;;;;;;;9.25;3.42;;;13.10;99.90;;;;;;5030479;28;20472;-63
2023/07/18 01:32:44;;;;;;;12.40;3.97;;;13.10;99.90;;;;;;5045122;28;20379;-64
2023/07/18 01:35:10;;;;;;;12.77;3.22;;;13.10;99.90;;;;;;5030821;28;20082;-63
2023/07/18 01:37:39;;;;;;;10.95;4.00;;;13.10;99.90;;;;;;5045997;28;20361;-63
2023/07/18 01:40:08;;;;;;;11.10;3.25;;;13.10;99.90;;;;;;5048004;28;20429;-63
2023/07/18 01:42:34;;;;;;;9.25;4.22;;;13.10;99.90;;;;;;5025377;28;20040;-63
2023/07/18 01:45:02;;;;;;;8.90;3.53;;;13.20;99.90;;;;;;5024653;28;20075;-63
2023/07/18 01:47:29;;;;;;;9.48;3.53;;;13.20;99.90;;;;;;5029594;28;20385;-64
2023/07/18 01:49:54;;;;;;;14.77;3.97;;;13.20;99.90;;;;;;5046074;28;20527;-63
2023/07/18 01:52:20;;;;;;;10.73;3.97;;;13.10;99.90;;;;;;5041236;28;20030;-63
2023/07/18 01:54:45;;;;;;;9.98;4.25;;;13.10;99.90;;;;;;5034932;28;20080;-63
2023/07/18 01:57:11;;;;;;;11.68;3.75;;;13.00;99.90;;;;;;5046883;28;20037;-63
2023/07/18 01:59:37;;;;;;;6.93;3.65;;;13.10;99.90;;;;;;5048398;28;20080;-64
2023/07/18 02:02:06;;;;;;;9.55;3.90;;;13.00;99.90;;;;;;5039080;28;20033;-65
2023/07/18 02:04:32;;;;;;;10.85;3.80;;;13.00;99.90;;;;;;5047325;28;20391;-63
2023/07/18 02:06:57;;;;;;;11.88;4.45;;;13.10;99.90;;;;;;5048427;28;20051;-63
2023/07/18 02:09:23;;;;;;;9.85;3.97;;;13.10;99.90;;;;;;5038087;28;20756;-63
2023/07/18 02:11:49;;;;;;;12.07;4.28;;;13.10;99.90;;;;;;5054333;28;20456;-63
2023/07/18 02:14:19;;;;;;;11.23;5.18;;;13.10;99.90;;;;;;5053788;28;20461;-63
2023/07/18 02:16:45;;;;;;;12.35;3.90;;;13.10;99.90;;;;;;5032814;28;20053;-64
2023/07/18 02:19:10;;;;;;;11.00;3.35;;;13.10;99.90;;;;;;5049353;28;20337;-64
2023/07/18 02:21:36;;;;;;;9.80;3.28;;;13.10;99.90;;;;;;5050127;28;20041;-63
2023/07/18 02:24:03;;;;;;;11.55;4.03;;;13.20;99.90;;;;;;5019877;28;20045;-64
2023/07/18 02:26:29;;;;;;;10.65;4.35;;;13.20;99.90;;;;;;5029925;28;20058;-63
2023/07/18 02:28:55;;;;;;;10.63;4.32;;;13.20;99.90;;;;;;5030089;28;20038;-65
2023/07/18 02:31:21;;;;;;;7.78;3.53;;;13.10;99.90;;;;;;5048894;28;20044;-63
2023/07/18 02:33:47;;;;;;;7.68;3.78;;;13.20;99.90;;;;;;5029766;28;20419;-64
2023/07/18 02:36:12;;;;;;;8.25;3.72;;;13.10;99.90;;;;;;5052353;28;20453;-63
2023/07/18 02:38:38;;;;;;;9.63;4.20;;;13.10;99.90;;;;;;5042930;28;20041;-64
2023/07/18 02:41:04;;;;;;;12.43;3.88;;;13.10;99.90;;;;;;5031568;28;20041;-64
2023/07/18 02:43:29;;;;;;;10.57;4.53;;;13.00;99.90;;;;;;5037975;28;20037;-63
2023/07/18 02:45:55;;;;;;;10.48;3.75;;;13.00;99.90;;;;;;5042435;28;20191;-64
2023/07/18 02:48:21;;;;;;;11.85;3.90;;;13.00;99.90;;;;;;5049425;28;20047;-63
2023/07/18 02:50:48;;;;;;;12.00;3.95;;;12.90;99.90;;;;;;5048999;28;20033;-63
2023/07/18 02:53:13;;;;;;;8.32;3.83;;;13.00;99.90;;;;;;5050717;28;20037;-64
2023/07/18 02:55:39;;;;;;;9.02;4.18;;;12.90;99.90;;;;;;5013604;28;20037;-63
2023/07/18 02:58:05;;;;;;;11.80;4.78;;;13.00;99.90;;;;;;5030277;28;20132;-64
2023/07/18 03:00:33;;;;;;;9.00;3.70;;;13.00;99.90;;;;;;5030266;28;20037;-63
2023/07/18 03:02:59;;;;;;;12.93;4.45;;;13.00;99.90;;;;;;5029525;28;20047;-63
2023/07/18 03:05:27;;;;;;;8.55;3.40;;;13.00;99.90;;;;;;5033466;28;20120;-64
2023/07/18 03:07:54;;;;;;;9.85;4.20;;;13.00;99.90;;;;;;5048678;28;20068;-63
2023/07/18 03:10:20;;;;;;;10.50;3.65;;;13.00;99.90;;;;;;5015690;28;20041;-64
2023/07/18 03:12:46;;;;;;;12.38;4.53;;;12.90;99.90;;;;;;5048546;28;20040;-63
2023/07/18 03:15:12;;;;;;;11.70;4.15;;;13.00;99.90;;;;;;5049197;28;20043;-63
2023/07/18 03:17:37;;;;;;;9.90;3.88;;;12.90;99.90;;;;;;5048309;28;20052;-63
2023/07/18 03:20:16;;;;;;;8.48;4.03;;;12.90;99.90;;;;;;5028465;28;20387;-63
2023/07/18 03:22:43;;;;;;;14.57;4.95;;;12.90;99.90;;;;;;5049624;28;20361;-64
2023/07/18 03:25:10;;;;;;;9.13;3.83;;;12.90;99.90;;;;;;5031456;28;20087;-63
2023/07/18 03:27:35;;;;;;;10.75;4.50;;;12.80;99.90;;;;;;5047737;28;20353;-64
2023/07/18 03:30:01;;;;;;;8.95;4.28;;;12.80;99.90;;;;;;5031477;28;20047;-63
2023/07/18 03:32:27;;;;;;;10.40;4.05;;;12.90;99.90;;;;;;5047674;28;20450;-64
2023/07/18 03:34:52;;;;;;;9.00;4.20;;;12.80;99.90;;;;;;5048746;28;20037;-64
2023/07/18 03:37:18;;;;;;;12.80;4.35;;;12.90;99.90;;;;;;5049049;28;20045;-63
2023/07/18 03:39:43;;;;;;;10.35;5.03;;;12.90;99.90;;;;;;5030414;28;20102;-63
2023/07/18 03:42:09;;;;;;;13.00;4.80;;;12.90;99.90;;;;;;5032887;28;20059;-64
2023/07/18 03:44:34;;;;;;;10.90;4.38;;;12.90;99.90;;;;;;5029374;28;20048;-64
2023/07/18 03:47:00;;;;;;;9.93;3.90;;;12.90;99.90;;;;;;5033033;28;20038;-64
2023/07/18 03:49:25;;;;;;;13.30;4.63;;;12.90;99.90;;;;;;5047180;28;20048;-64
2023/07/18 03:51:51;;;;;;;13.00;4.50;;;12.90;99.90;;;;;;5030877;28;20095;-63
2023/07/18 03:54:17;;;;;;;11.02;4.65;;;12.90;99.90;;;;;;5049857;28;20071;-63
2023/07/18 03:56:42;;;;;;;11.60;4.47;;;12.80;99.90;;;;;;5030462;28;20547;-64
2023/07/18 03:59:08;;;;;;;10.23;4.20;;;12.80;99.90;;;;;;5046705;28;20067;-64
2023/07/18 04:01:33;;;;;;;9.25;4.40;;;12.90;99.90;;;;;;5067219;28;20036;-63
2023/07/18 04:03:59;;;;;;;10.77;4.43;;;12.80;99.90;;;;;;5050007;28;20087;-64
2023/07/18 04:06:24;;;;;;;14.40;4.38;;;12.90;99.90;;;;;;5049805;28;20044;-64
2023/07/18 04:08:50;;;;;;;11.73;4.05;;;12.90;99.90;;;;;;5029283;28;20133;-64
2023/07/18 04:11:16;;;;;;;13.25;4.70;;;12.90;99.90;;;;;;5015463;28;20029;-64
2023/07/18 04:13:42;;;;;;;13.70;4.22;;;12.80;99.90;;;;;;5047494;28;20072;-63
2023/07/18 04:16:07;;;;;;;12.80;4.43;;;12.90;99.90;;;;;;5039990;28;20037;-64
2023/07/18 04:18:33;;;;;;;8.38;4.25;;;12.90;99.90;;;;;;5048471;28;20064;-63
2023/07/18 04:21:01;;;;;;;15.32;4.80;;;12.90;99.90;;;;;;5034453;28;20052;-63
2023/07/18 04:23:26;;;;;;;13.45;4.53;;;12.90;99.90;;;;;;5028490;28;20041;-63
2023/07/18 04:26:00;;;;;;;13.95;5.15;;;12.90;99.90;;;;;;5026074;28;20088;-63
2023/07/18 04:28:34;;;;;;;11.38;3.97;;;13.00;99.90;;;;;;5038176;28;20036;-64
2023/07/18 04:31:00;;;;;;;11.93;4.55;;;13.00;99.90;;;;;;5012419;28;20110;-64
2023/07/18 04:33:25;;;;;;;10.63;4.57;;;13.00;99.90;;;;;;5028274;28;20139;-63
2023/07/18 04:35:51;;;;;;;11.93;4.07;;;13.00;99.90;;;;;;5048625;28;20040;-63
2023/07/18 04:38:17;;;;;;;10.18;3.88;;;13.10;99.90;;;;;;5042914;28;20037;-63
2023/07/18 04:40:43;;;;;;;9.75;5.07;;;13.20;99.90;;;;;;5048529;28;20081;-64
2023/07/18 04:43:09;;;;;;;8.73;4.65;;;13.20;99.90;;;;;;5030116;28;20135;-63
2023/07/18 04:45:41;;;;;;;11.82;4.05;;;13.30;99.90;;;;;;5046416;28;20079;-63
2023/07/18 04:48:06;;;;;;;10.07;4.55;;;13.30;99.90;;;;;;5030219;28;20468;-64
2023/07/18 04:50:32;;;;;;;11.95;4.38;;;13.30;99.90;;;;;;5027883;28;20041;-63
2023/07/18 04:52:58;;;;;;;11.85;4.70;;;13.30;99.90;;;;;;5043499;28;20033;-63
2023/07/18 04:55:23;;;;;;;8.23;3.92;;;13.40;99.90;;;;;;5010614;28;20048;-63
2023/07/18 04:57:49;;;;;;;10.50;4.20;;;13.40;99.90;;;;;;5027679;28;20045;-64
2023/07/18 05:00:15;;;;;;;13.00;4.68;;;13.40;99.90;;;;;;5049456;28;20116;-64
2023/07/18 05:02:40;;;;;;;8.40;4.07;;;13.50;99.90;;;;;;5045279;28;20045;-63
2023/07/18 05:05:07;;;;;;;12.93;4.35;;;13.60;99.90;;;;;;5047292;28;20510;-63
2023/07/18 05:07:32;;;;;;;15.10;4.90;;;13.60;99.90;;;;;;5048004;28;20059;-64
2023/07/18 05:09:58;;;;;;;11.80;4.57;;;13.60;99.90;;;;;;5040670;28;20040;-64
2023/07/18 05:12:24;;;;;;;11.90;4.53;;;13.60;99.90;;;;;;5028248;28;20491;-63
2023/07/18 05:14:49;;;;;;;10.23;4.00;;;13.60;99.90;;;;;;5046583;28;20040;-64
2023/07/18 05:17:15;;;;;;;16.25;4.60;;;13.60;99.90;;;;;;5029824;28;20366;-64
2023/07/18 05:19:40;;;;;;;13.32;4.05;;;13.70;99.90;;;;;;5033265;28;20060;-63
2023/07/18 05:22:06;;;;;;;12.95;4.55;;;13.80;99.90;;;;;;5038473;28;20083;-64
2023/07/18 05:24:32;;;;;;;10.93;3.72;;;13.80;99.90;;;;;;5030851;28;20073;-64
2023/07/18 05:26:58;;;;;;;10.88;4.40;;;13.90;99.90;;;;;;5042583;28;20177;-63
2023/07/18 05:29:24;;;;;;;12.43;4.32;;;14.00;99.90;;;;;;5028408;28;20041;-63
2023/07/18 05:31:50;;;;;;;8.35;3.85;;;14.00;99.90;;;;;;5025055;28;20132;-64
2023/07/18 05:34:16;;;;;;;12.05;4.20;;;14.00;99.90;;;;;;5034679;28;20466;-63
2023/07/18 05:36:41;;;;;;;11.93;3.83;;;14.10;99.90;;;;;;5030360;28;20099;-64
2023/07/18 05:39:07;;;;;;;13.95;4.32;;;14.20;99.90;;;;;;5039194;28;20063;-65
2023/07/18 05:41:33;;;;;;;12.45;4.22;;;14.40;99.90;;;;;;5044914;28;20040;-64
2023/07/18 05:43:58;;;;;;;14.20;4.68;;;14.60;99.90;;;;;;5037173;28;20788;-62
2023/07/18 05:46:24;;;;;;;12.65;4.28;;;14.80;99.90;;;;;;5015070;28;20133;-65
2023/07/18 05:48:50;;;;;;;9.93;3.97;;;14.90;99.90;;;;;;5050063;28;20194;-65
2023/07/18 05:51:15;;;;;;;10.32;3.85;;;15.00;99.90;;;;;;5029374;28;20083;-64
2023/07/18 05:53:41;;;;;;;12.52;4.05;;;15.10;99.90;;;;;;5033087;28;20365;-63
2023/07/18 05:56:07;;;;;;;6.43;3.40;;;15.40;99.90;;;;;;5049584;28;20036;-64
2023/07/18 05:58:33;;;;;;;10.18;4.32;;;15.70;99.90;;;;;;5049950;28;20056;-64
2023/07/18 06:00:58;;;;;;;8.55;4.00;;;15.90;99.90;;;;;;5023228;28;20337;-64
2023/07/18 06:03:24;;;;;;;10.95;3.97;;;16.00;99.90;;;;;;5030216;28;20461;-63
2023/07/18 06:05:54;;;;;;;15.73;3.85;;;16.00;99.90;;;;;;5032859;28;20350;-64
2023/07/18 06:08:20;;;;;;;10.15;4.10;;;16.20;99.90;;;;;;5043413;28;20487;-64
2023/07/18 06:10:46;;;;;;;10.45;3.40;;;16.20;99.90;;;;;;5019002;28;20480;-64
2023/07/18 06:13:11;;;;;;;9.38;3.28;;;16.30;99.90;;;;;;5027310;28;20120;-64
2023/07/18 06:15:37;;;;;;;9.73;3.20;;;16.30;99.90;;;;;;5014383;28;20570;-65
2023/07/18 06:18:02;;;;;;;10.75;3.42;;;16.30;99.90;;;;;;5045437;28;20690;-65
2023/07/18 06:20:28;;;;;;;7.97;3.38;;;16.40;99.90;;;;;;5040733;28;20129;-64
2023/07/18 06:22:54;;;;;;;11.70;3.25;;;16.50;99.90;;;;;;5041848;28;20048;-65
2023/07/18 06:25:20;;;;;;;13.35;3.20;;;16.70;99.90;;;;;;5025400;28;20060;-64
2023/07/18 06:27:46;;;;;;;10.43;3.28;;;16.80;99.90;;;;;;5043554;28;20091;-65
2023/07/18 06:30:12;;;;;;;12.00;3.38;;;16.80;99.90;;;;;;5046751;28;20080;-64
2023/07/18 06:32:39;;;;;;;7.13;2.92;;;16.80;99.90;;;;;;5045183;28;20325;-64
2023/07/18 06:35:05;;;;;;;8.95;3.20;;;17.00;99.70;;;;;;5029169;28;20033;-64
2023/07/18 06:37:30;;;;;;;11.30;3.35;;;17.20;99.30;;;;;;5028428;28;20114;-64
2023/07/18 06:39:56;;;;;;;10.10;2.95;;;17.50;99.30;;;;;;5030729;28;20053;-64
2023/07/18 06:42:21;;;;;;;12.63;3.10;;;17.50;98.70;;;;;;5029533;28;20124;-63
2023/07/18 06:44:47;;;;;;;9.82;2.95;;;17.50;97.80;;;;;;5045893;28;20065;-64
2023/07/18 06:47:13;;;;;;;7.90;2.65;;;17.60;97.30;;;;;;5047907;28;20107;-65
2023/07/18 06:49:38;;;;;;;10.60;2.95;;;17.70;96.80;;;;;;5042380;28;20045;-64
2023/07/18 06:52:04;;;;;;;8.85;2.63;;;17.80;96.20;;;;;;5050577;28;20467;-65
2023/07/18 06:54:30;;;;;;;10.18;2.72;;;17.90;95.60;;;;;;5029347;28;20109;-64
2023/07/18 06:56:56;;;;;;;8.50;2.67;;;18.00;95.10;;;;;;5027996;28;20384;-64
2023/07/18 06:59:24;;;;;;;10.57;2.95;;;18.10;94.40;;;;;;5035875;28;20040;-64
2023/07/18 07:01:49;;;;;;;8.15;2.78;;;18.20;94.10;;;;;;5024288;28;20128;-65
2023/07/18 07:04:17;;;;;;;8.27;2.47;;;18.30;93.50;;;;;;5043187;28;20037;-65
2023/07/18 07:06:42;;;;;;;9.88;2.63;;;18.30;93.10;;;;;;5022200;28;20056;-65
2023/07/18 07:09:09;;;;;;;8.23;2.55;;;18.30;92.90;;;;;;5011472;28;20473;-65
2023/07/18 07:11:36;;;;;;;9.75;2.58;;;18.40;92.80;;;;;;5046831;28;20032;-64
2023/07/18 07:14:06;;;;;;;8.50;2.67;;;18.40;92.90;;;;;;5048021;28;20048;-64
2023/07/18 07:16:32;;;;;;;12.45;2.75;;;18.60;92.80;;;;;;5031326;28;20060;-65
2023/07/18 07:18:58;;;;;;;7.43;2.67;;;18.80;92.40;;;;;;5029376;28;20049;-66
2023/07/18 07:21:24;;;;;;;9.00;2.60;;;19.30;92.20;;;;;;5024262;28;20041;-65
2023/07/18 07:23:50;;;;;;;9.13;2.90;;;19.40;91.90;;;;;;5028899;28;20034;-65
2023/07/18 07:26:17;;;;;;;8.68;2.92;;;19.20;91.70;;;;;;5026853;28;20061;-64
2023/07/18 07:28:42;;;;;;;11.23;3.22;;;19.10;91.10;;;;;;5028284;28;20520;-64
2023/07/18 07:31:08;;;;;;;9.10;2.50;;;19.00;90.80;;;;;;5028481;28;20042;-64
2023/07/18 07:33:33;;;;;;;5.88;2.60;;;19.30;90.60;;;;;;5027815;28;20082;-64
2023/07/18 07:35:59;;;;;;;8.02;2.40;;;19.40;90.40;;;;;;5028082;28;20051;-65
2023/07/18 07:38:25;;;;;;;5.85;2.63;;;19.50;90.10;;;;;;5008246;28;20041;-65
2023/07/18 07:40:50;;;;;;;12.82;2.45;;;19.60;89.80;;;;;;5012040;28;20056;-66
2023/07/18 07:43:16;;;;;;;11.70;3.50;;;19.60;89.40;;;;;;5028313;28;20076;-63
2023/07/18 07:45:41;;;;;;;7.93;2.38;;;19.50;88.30;;;;;;5029128;28;20045;-66
2023/07/18 07:48:07;;;;;;;8.98;2.70;;;19.40;88.40;;;;;;5010423;28;20029;-65
2023/07/18 07:50:34;;;;;;;9.85;2.42;;;19.50;88.10;;;;;;5025956;28;20046;-65
2023/07/18 07:53:00;;;;;;;9.02;3.08;;;19.40;87.80;;;;;;5012227;28;20045;-66
2023/07/18 07:55:25;;;;;;;8.10;2.92;;;19.50;87.80;;;;;;5039523;28;20039;-64
2023/07/18 07:57:51;;;;;;;12.48;2.60;;;19.90;87.40;;;;;;5025263;28;20080;-65
2023/07/18 08:00:18;;;;;;;12.48;3.05;;;19.90;86.80;;;;;;5023530;28;20033;-64
2023/07/18 08:02:44;;;;;;;8.70;2.88;;;20.40;85.90;;;;;;5014627;28;20052;-64
2023/07/18 08:05:10;;;;;;;9.38;2.78;;;20.40;84.90;;;;;;5028309;28;20120;-65
2023/07/18 08:07:36;;;;;;;9.13;2.58;;;20.30;84.10;;;;;;5022007;28;20047;-64
2023/07/18 08:10:02;;;;;;;8.13;2.72;;;20.00;83.80;;;;;;5048473;28;20048;-66
2023/07/18 08:12:28;;;;;;;10.43;2.38;;;19.90;83.60;;;;;;5047773;28;20059;-65
2023/07/18 08:14:53;;;;;;;8.25;2.90;;;19.60;83.90;;;;;;5029919;28;20044;-64
2023/07/18 08:17:19;;;;;;;11.55;2.88;;;19.60;84.30;;;;;;5014597;28;20040;-66
2023/07/18 08:19:45;;;;;;;11.02;2.55;;;19.30;84.40;;;;;;5015460;28;20041;-64
2023/07/18 08:22:10;;;;;;;10.57;2.67;;;19.20;84.80;;;;;;5012522;28;20053;-64
2023/07/18 08:24:36;;;;;;;7.97;3.00;;;19.10;85.10;;;;;;5043311;28;20124;-65
2023/07/18 08:27:02;;;;;;;13.40;2.67;;;19.10;85.20;;;;;;5045103;28;20479;-65
2023/07/18 08:29:30;;;;;;;7.10;2.53;;;19.10;85.70;;;;;;5031348;28;20488;-64
2023/07/18 08:31:55;;;;;;;12.43;4.00;;;19.10;85.80;;;;;;5028849;28;20082;-65
2023/07/18 08:34:21;;;;;;;12.38;3.13;;;19.00;85.80;;;;;;5027604;28;20436;-64
2023/07/18 08:36:47;;;;;;;6.32;2.60;;;18.90;86.10;;;;;;5047362;28;20659;-65
2023/07/18 08:39:14;;;;;;;8.48;2.83;;;19.10;86.10;;;;;;5030205;28;20037;-66
2023/07/18 08:41:43;;;;;;;11.18;2.80;;;19.20;86.00;;;;;;5032070;28;20472;-64
2023/07/18 08:44:12;;;;;;;10.00;3.22;;;19.20;85.70;;;;;;5026374;28;20063;-64
2023/07/18 08:46:38;;;;;;;14.60;3.05;;;19.30;85.60;;;;;;5048282;28;20045;-65
2023/07/18 08:49:05;;;;;;;6.90;2.38;;;19.50;85.60;;;;;;5027789;28;20158;-64
2023/07/18 08:51:31;;;;;;;9.48;2.80;;;19.60;85.40;;;;;;5029308;28;20599;-65
2023/07/18 08:53:57;;;;;;;6.85;2.60;;;19.90;84.80;;;;;;5048540;28;20045;-65
2023/07/18 08:56:25;;;;;;;12.15;3.03;;;20.60;83.80;;;;;;5028072;28;20140;-64
2023/07/18 08:58:50;;;;;;;7.45;2.83;;;21.30;80.80;;;;;;5010811;28;20475;-64
2023/07/18 09:01:16;;;;;;;10.90;3.55;;;22.30;80.10;;;;;;5026881;28;20060;-65
2023/07/18 09:03:42;;;;;;;8.18;3.35;;;22.60;78.30;;;;;;5027232;28;20045;-65
2023/07/18 09:06:20;;;;;;;8.93;2.97;;;22.80;76.20;;;;;;5028481;28;20393;-64
2023/07/18 09:08:47;;;;;;;10.45;2.88;;;23.60;70.60;;;;;;5008454;28;20095;-65
2023/07/18 09:11:16;;;;;;;8.70;2.25;;;24.00;71.10;;;;;;5011019;28;20084;-67
2023/07/18 09:13:42;;;;;;;9.03;3.17;;;24.50;69.20;;;;;;5008896;28;20055;-66
2023/07/18 09:16:17;;;;;;;7.55;2.42;;;24.90;67.20;;;;;;5023347;28;20354;-68
2023/07/18 09:18:50;;;;;;;4.93;2.30;;;25.40;64.10;;;;;;5029535;28;20054;-66
2023/07/18 09:21:17;;;;;;;6.65;2.40;;;25.10;62.90;;;;;;5028780;28;20473;-66
2023/07/18 09:23:43;;;;;;;7.53;2.33;;;24.70;63.80;;;;;;5034060;28;20048;-65
2023/07/18 09:26:10;;;;;;;5.65;2.00;;;24.70;63.30;;;;;;5041696;28;20045;-66
2023/07/18 09:28:36;;;;;;;10.85;2.30;;;25.00;62.10;;;;;;5029644;28;20372;-65
2023/07/18 09:31:02;;;;;;;6.53;1.83;;;25.10;60.00;;;;;;5031079;28;20037;-66
2023/07/18 09:33:28;;;;;;;5.78;1.67;;;25.20;60.60;;;;;;5045466;28;20457;-66
2023/07/18 09:35:58;;;;;;;7.20;1.98;;;25.00;60.10;;;;;;5032374;28;20045;-66
2023/07/18 09:38:25;;;;;;;5.97;2.10;;;24.90;58.30;;;;;;5023003;28;20123;-65
2023/07/18 09:40:52;;;;;;;6.07;1.42;;;24.30;59.90;;;;;;5044986;28;20043;-65
2023/07/18 09:43:21;;;;;;;10.20;1.67;;;23.90;60.40;;;;;;5031453;28;20041;-65
2023/07/18 09:45:51;;;;;;;4.72;1.45;;;23.80;59.10;;;;;;5031020;28;20049;-63
2023/07/18 09:48:17;;;;;;;4.50;1.73;;;24.70;57.10;;;;;;5050348;28;20040;-66
2023/07/18 09:50:44;;;;;;;7.10;1.60;;;25.30;57.10;;;;;;5031729;28;20067;-64
2023/07/18 09:53:12;;;;;;;2.90;1.20;;;26.00;55.90;;;;;;5044489;28;20100;-66
2023/07/18 09:55:38;;;;;;;6.78;1.50;;;25.90;55.30;;;;;;5033495;28;20041;-66
2023/07/18 09:58:07;;;;;;;12.55;1.90;;;25.70;55.40;;;;;;5028668;28;20422;-65
2023/07/18 10:00:35;;;;;;;6.00;1.67;;;25.40;54.90;;;;;;5031622;28;20465;-65
2023/07/18 10:03:03;;;;;;;6.30;1.70;;;24.90;55.90;;;;;;5032211;28;20125;-64
2023/07/18 10:05:29;;;;;;;4.97;1.88;;;24.50;56.50;;;;;;5033302;28;20045;-64
2023/07/18 10:07:56;;;;;;;4.70;1.50;;;24.70;56.10;;;;;;5033256;28;20045;-65
2023/07/18 10:10:21;;;;;;;6.00;1.52;;;25.80;54.60;;;;;;5050353;28;20040;-65
2023/07/18 10:12:53;;;;;;;4.35;1.67;;;26.70;52.60;;;;;;5029068;28;20049;-64
2023/07/18 10:15:19;;;;;;;4.60;1.38;;;27.20;48.20;;;;;;5032021;28;20037;-65
2023/07/18 10:17:47;;;;;;;6.25;1.65;;;26.70;51.40;;;;;;5006889;28;20056;-64
2023/07/18 10:20:23;;;;;;;6.10;1.33;;;26.50;51.60;;;;;;5025793;28;20052;-64
2023/07/18 10:22:57;;;;;;;4.40;1.30;;;26.10;51.90;;;;;;5026798;28;20045;-65
2023/07/18 10:25:23;;;;;;;3.72;1.25;;;26.10;51.00;;;;;;5016824;28;20053;-64
2023/07/18 10:27:49;;;;;;;5.55;1.83;;;26.30;51.30;;;;;;5045544;28;20128;-64
2023/07/18 10:30:18;;;;;;;5.20;1.20;;;25.60;51.60;;;;;;5029694;28;20064;-64
2023/07/18 10:32:55;;;;;;;5.28;1.35;;;25.20;51.30;;;;;;5047370;28;20170;-65
2023/07/18 10:35:26;;;;;;;2.65;1.17;;;25.20;49.20;;;;;;5030379;28;20045;-64
2023/07/18 10:38:09;;;;;;;4.50;1.15;;;25.00;50.90;;;;;;5039029;28;20107;-65
2023/07/18 10:40:39;;;;;;;5.00;1.27;;;25.10;50.70;;;;;;5047927;28;20045;-64
2023/07/18 10:43:18;;;;;;;4.00;1.20;;;25.70;50.70;;;;;;5047386;28;20614;-65
2023/07/18 10:45:44;;;;;;;3.67;1.00;;;26.30;49.60;;;;;;5047258;28;20159;-65
2023/07/18 10:48:13;;;;;;;5.00;1.48;;;26.50;49.20;;;;;;5026431;28;20603;-64
2023/07/18 10:50:39;;;;;;;3.92;1.17;;;26.30;46.90;;;;;;5046689;28;20426;-65
2023/07/18 10:53:05;;;;;;;3.63;1.10;;;26.10;48.70;;;;;;5048323;28;20118;-64
2023/07/18 10:55:31;;;;;;;2.35;1.00;;;26.50;48.20;;;;;;5028201;28;20033;-66
2023/07/18 10:57:56;;;;;;;4.95;1.27;;;27.00;47.40;;;;;;5049312;28;20044;-65
2023/07/18 11:00:24;;;;;;;4.20;1.02;;;27.50;46.50;;;;;;5045543;28;20037;-65
2023/07/18 11:02:50;;;;;;;4.43;0.95;;;27.40;46.70;;;;;;5048288;28;20774;-66
2023/07/18 11:05:16;;;;;;;5.15;1.15;;;27.40;44.90;;;;;;5029820;28;20037;-65
2023/07/18 11:07:43;;;;;;;4.93;0.93;;;27.30;46.00;;;;;;5048600;28;20143;-66
2023/07/18 11:10:10;;;;;;;4.80;1.13;;;26.80;46.10;;;;;;5049193;28;20376;-66
2023/07/18 11:12:35;;;;;;;4.80;1.08;;;26.40;47.20;;;;;;5048623;28;20041;-66
2023/07/18 11:15:09;;;;;;;3.22;0.90;;;26.30;46.90;;;;;;5027254;28;20422;-65
2023/07/18 11:17:35;;;;;;;3.70;1.38;;;26.30;46.50;;;;;;5046988;28;20097;-66
2023/07/18 11:20:02;;;;;;;3.60;1.23;;;26.40;46.90;;;;;;5046693;28;20040;-67
2023/07/18 11:22:29;;;;;;;7.25;2.03;;;26.30;46.80;;;;;;5048987;28;20048;-66
2023/07/18 11:24:55;;;;;;;4.70;1.23;;;26.30;46.80;;;;;;5044569;28;20041;-64
2023/07/18 11:27:26;;;;;;;4.15;1.15;;;26.10;47.50;;;;;;5014288;28;20064;-66
2023/07/18 11:30:08;;;;;;;3.67;1.20;;;26.00;47.00;;;;;;5012802;28;20088;-64
2023/07/18 11:32:45;;;;;;;2.25;0.80;;;25.90;44.60;;;;;;5045906;28;20097;-64
2023/07/18 11:35:17;;;;;;;3.65;1.23;;;25.80;46.10;;;;;;5049897;28;20396;-65
2023/07/18 11:37:42;;;;;;;4.05;1.35;;;25.50;45.90;;;;;;5029899;28;20502;-67
2023/07/18 11:40:09;;;;;;;2.85;1.05;;;25.40;46.30;;;;;;5048491;28;20041;-65
2023/07/18 11:42:46;;;;;;;1.70;0.73;;;25.20;46.70;;;;;;5013935;28;20151;-66
2023/07/18 11:45:12;;;;;;;2.90;0.88;;;25.30;45.60;;;;;;5047847;28;20048;-64
2023/07/18 11:47:46;;;;;;;2.47;1.20;;;25.60;45.70;;;;;;5030487;28;20120;-66
2023/07/18 11:50:13;;;;;;;3.28;0.80;;;25.60;42.00;;;;;;5046769;28;20044;-64
2023/07/18 11:52:41;;;;;;;3.15;0.85;;;25.40;42.90;;;;;;5030609;28;20037;-65
2023/07/18 11:55:07;;;;;;;1.98;0.80;;;25.60;42.60;;;;;;5048840;28;20045;-67
2023/07/18 11:57:33;;;;;;;2.47;0.82;;;25.60;42.80;;;;;;5028866;28;20071;-66
2023/07/18 11:59:58;;;;;;;2.13;0.70;;;25.70;42.60;;;;;;5049269;28;20122;-64
2023/07/18 12:02:24;;;;;;;4.72;1.08;;;25.70;42.30;;;;;;5046639;28;20500;-65
2023/07/18 12:04:49;;;;;;;2.85;0.68;;;25.70;42.60;;;;;;5029201;28;20546;-66
2023/07/18 12:07:16;;;;;;;3.75;1.00;;;25.90;42.10;;;;;;5048967;28;20051;-64
2023/07/18 12:09:41;;;;;;;3.22;0.68;;;26.00;43.20;;;;;;5028448;28;20045;-63
2023/07/18 12:12:07;;;;;;;4.03;0.73;;;26.30;42.00;;;;;;5048833;28;20048;-63
2023/07/18 12:14:34;;;;;;;2.85;0.88;;;26.50;41.90;;;;;;5024078;28;20494;-64
2023/07/18 12:17:00;;;;;;;1.40;0.43;;;26.30;41.50;;;;;;5030708;28;20519;-65
2023/07/18 12:19:25;;;;;;;2.60;0.75;;;26.00;41.90;;;;;;5044107;28;20044;-65
2023/07/18 12:21:51;;;;;;;2.17;0.93;;;25.90;42.30;;;;;;5025095;28;20037;-64
2023/07/18 12:24:18;;;;;;;1.02;0.68;;;25.40;42.50;;;;;;5043073;28;20048;-64
2023/07/18 12:26:45;;;;;;;4.50;0.75;;;25.20;42.00;;;;;;5046012;28;20049;-64
2023/07/18 12:29:16;;;;;;;2.35;0.85;;;25.10;43.10;;;;;;5029251;28;20032;-66
2023/07/18 12:31:48;;;;;;;4.38;0.70;;;25.00;43.40;;;;;;5046355;28;20112;-64
2023/07/18 12:34:13;;;;;;;1.70;0.65;;;24.80;43.30;;;;;;5044471;28;20524;-64
2023/07/18 12:36:39;;;;;;;1.67;0.73;;;24.50;44.00;;;;;;5028157;28;20077;-66
2023/07/18 12:39:06;;;;;;;3.70;1.00;;;24.50;43.70;;;;;;5024123;28;20119;-64
2023/07/18 12:41:31;;;;;;;1.42;0.75;;;24.20;44.00;;;;;;5047536;28;20041;-64